Historyczne dane pomiarowe

Dodano dane terminowe – wersja testowa.

Dane z okresu 1951-2019

Wersja bazy: 1.34 [2019-03-16, lista zmian], aktualizacja planowana na 2019-04-15

Dane meteo z obszaru Polski uzyskane na podstawie danych udostępnionych przez Instytut Meteorologii i Gospodarki Wodnej – Państwowy Instytut Badawczy.

 

Wybierz Datę:    

       

TemperaturaWilgotnośćWiatrCiśnienieOpadyŚniegCzas trwania zjawisk
 Stacja t tx tn tng RH VA  wxwx mslp ppp RRR   cm mm wxwxwxwxwxwxwx
1999-08-14 15.4 20.2 8.4- 72.5- 5.3 1.3---- 0.1------------
1999-08-13 14.7 18.3 12.2- 86.8- 6.0 2.3---- 1.1------------
1999-08-12 16.4 20.9 13.0- 82.0- 5.7 3.0---- 0.0------------
1999-08-11 17.3 20.5 15.1- 88.5- 7.3 2.0---- 1.8------------
1999-08-10 19.3 25.9 14.4- 88.0- 6.0 1.0---- 3.6------------
1999-08-09 20.1 27.6 16.1- 76.0- 6.7 1.7---- 0.0------------
1999-08-08 21.9 28.2 17.9- 77.3- 6.7 2.0---- 0.0------------
1999-08-07 20.0 29.8 12.7- 63.8- 4.3 1.3---- 0.0------------
1999-08-06 20.3 29.3 13.0- 71.3- 5.3 2.7---- 0.0------------
1999-08-05 21.4 29.7 12.0- 55.5- 4.7 0.7---- 0.0------------
1999-08-04 20.3 27.5 11.5- 63.3- 3.3 1.3---- 0.0------------
1999-08-03 18.6 27.7 7.5- 62.0- 4.7 2.0---- 0.0------------
1999-08-02 18.9 26.9 10.8- 64.5- 1.0 3.0---- 0.0------------
1999-08-01 19.1 28.1 9.4- 67.3- 1.3 2.3---- 0.0------------
1999-07-31 19.5 28.7 9.8- 49.0- 1.7 2.0---- 0.0------------
1999-07-30 17.9 26.9 7.2- 67.0- 2.0 1.0---- 0.0------------
1999-07-29 18.3 25.9 7.0- 59.0- 2.3 1.7---- 0.0------------
1999-07-28 16.8 24.2 6.5- 69.5- 3.3 2.7---- 0.0------------
1999-07-27 15.3 22.2 6.8- 73.3- 3.3 1.7---- 0.0------------
1999-07-26 16.6 22.4 14.1- 77.8- 4.7 2.7---- 0.0------------
1999-07-25 18.5 23.5 13.9- 80.3- 3.7 2.0---- 0.0------------
1999-07-24 15.7 21.3 12.1- 86.8- 7.7 1.7---- 0.0------------
1999-07-23 14.8 21.2 9.2- 81.8- 7.0 1.3---- 0.0------------
1999-07-22 15.8 20.7 13.3- 68.8- 7.7 1.7---- 0.0------------
1999-07-21 20.4 24.9 15.8- 74.5- 3.7 2.0---- 0.0------------
1999-07-20 21.3 31.1 15.1- 70.0- 6.7 1.7---- 0.6------------
1999-07-19 21.2 30.1 12.0- 72.0- 2.3 1.7---- 0.0------------
1999-07-18 20.8 28.7 13.1- 75.3- 3.3 2.0---- 0.0------------
1999-07-17 17.7 24.1 11.9- 79.3- 4.3 1.7---- 0.0------------
1999-07-16 15.4 19.7 10.7- 80.0- 4.0 2.0---- 0.0------------
1999-07-15 15.9 18.2 14.0- 81.3- 7.0 2.3---- 0.0------------
1999-07-14 18.3 23.1 15.9- 90.5- 7.3 1.7---- 9.5------------
1999-07-13 21.3 29.1 16.9- 84.0- 2.7 2.0---- 2.9------------
1999-07-12 22.8 29.8 13.3- 55.8- 3.7 2.3---- 15.1------------
1999-07-11 22.3 29.5 13.8- 65.3- 1.0 1.3---- 0.0------------
1999-07-10 20.1 28.2 9.8- 59.0- 1.7 2.0---- 0.0------------
1999-07-09 18.0 23.2 13.2- 66.5- 1.0 4.0---- 0.0------------
1999-07-08 18.1 21.7 14.1- 81.5- 6.3 4.3---- 1.6------------
1999-07-07 16.5 19.4 14.4- 86.5- 7.3 2.3---- 0.3------------
1999-07-06 21.4 30.1 17.0- 85.5- 6.0 2.7---- 15.8------------
1999-07-05 25.4 34.1 14.3- 61.0- 5.0 1.7---- 3.3------------
1999-07-04 20.9 28.1 12.9- 76.3- 2.0 1.7---- 0.0------------
1999-07-03 19.8 25.5 12.5- 71.3- 3.7 1.0---- 0.0------------
1999-07-02 16.6 21.7 10.4- 78.0- 4.0 1.0---- 0.0------------
1999-07-01 18.9 22.9 16.9- 83.3- 6.0 1.3---- 0.0------------
1999-06-30 20.0 26.7 13.0- 63.3- 4.3 1.3---- 0.0------------
1999-06-29 18.4 23.0 11.8- 63.8- 2.0 1.0---- 0.0------------
1999-06-28 19.4 25.1 15.9- 86.5- 6.3 1.0---- 3.8------------
1999-06-27 19.5 24.9 12.0- 69.3- 4.7 1.3---- 0.0------------
1999-06-26 13.0 18.2 5.1- 71.3- 6.0 1.7---- 0.1------------
1999-06-25 12.4 17.6 8.8- 82.5- 5.7 1.7---- 3.2------------
1999-06-24 11.8 15.8 3.6- 72.8- 4.3 1.0---- 0.0------------
1999-06-23 12.0 14.4 8.0- 74.5- 6.3 3.0---- 0.0------------
1999-06-22 10.2 14.1 7.2- 86.3- 8.0 2.0---- 5.4------------
1999-06-21 14.7 20.3 11.9- 88.3- 8.0 1.7---- 7.0------------
1999-06-20 17.7 22.6 11.5- 66.3- 6.3 2.0---- 0.4------------
1999-06-19 16.2 19.9 13.0- 89.3- 7.0 2.3---- 0.0------------
1999-06-18 15.7 21.9 9.3- 81.8- 5.3 2.0---- 0.0------------
1999-06-17 16.3 22.5 7.0- 72.0- 4.7 1.0---- 0.0------------
1999-06-16 16.4 21.5 9.0- 75.5- 4.7 2.0---- 0.0------------
360.3 ms

 

Źródłem pochodzenia danych jest Instytut Meteorologii i Gospodarki Wodnej – Państwowy Instytut Badawczy. Dane Instytutu Meteorologii i Gospodarki Wodnej – Państwowego Instytutu Badawczego zostały przetworzone.

Dane źródłowe można odnaleźć na stronie https://dane.imgw.pl